Skip Navigation LinksHome page > Weather > Current weather Skip Navigation Links

Current Weather

Waukegan Regional, Waukegan, Ill.

For information only: do not use for flight planning or navigation.
Latest weather
Observation time Tuesday, October 19, 2021 2:55 PM CDT
Local time Tuesday, October 19, 2021 3:59 PM CDT
Flight conditions Visual Meteorological Conditions
Winds
Wind direction South-Southwest (210°)
Wind speed 12 mph
Visibility 10 mi.
Sky condition
Ceiling unlimited
Sky clear
Temperature 72°F
Dewpoint 47°F
Altimeter 30.04 in.Hg
Derived measurements
Relative humidity 41%
Density altitude 1589 ft.
Sea-level pressure 30.02 in.Hg
Remarks
Automated weather observing station with precipitation discriminator.
METAR KUGN 191955Z 21010KT 10SM CLR 22/08 A3004 RMK AO2 SLP166 T02220083

Settings

Location code

InnerDrive.Weather 4.0.6770.0 Release CLR 4.0.30319.42000
Copyright ©2018 Inner Drive Technology. All rights reserved. Portions Copyright ©1986-2018 David Braverman.

Find weather

Site navigation


Skip Navigation Links

Place info

Page info

PayPal - The safer, easier way to pay online!

Return home.

Copyright ©2021 Inner Drive Technology. Purveyors of fine, hand-crafted computer software. Page printed 2021-10-19T20:59:21 UTC.